Time,TemperatureF,DewpointF,PressureIn,WindDirection,WindDirectionDegrees,WindSpeedMPH,WindSpeedGustMPH,Humidity,HourlyPrecipIn,Conditions,Clouds,dailyrainin,SoftwareType,DateUTC
2013-03-17 00:03:00,61.0,50.0,29.84,NNW,342,2.0,5.0,67,0.00,,,0.08,,2013-03-17 04:03:00,
2013-03-17 00:13:00,61.0,50.0,29.84,NNW,342,2.0,5.0,67,0.00,,,0.08,,2013-03-17 04:13:00,
2013-03-17 00:23:00,61.0,50.0,29.85,WSW,252,2.0,5.0,67,0.00,,,0.08,,2013-03-17 04:23:00,
2013-03-17 00:32:00,60.0,50.0,29.85,WSW,251,0.0,3.0,69,0.00,,,0.08,,2013-03-17 04:32:00,
2013-03-17 00:43:00,60.0,50.0,29.85,WSW,251,0.0,3.0,69,0.00,,,0.08,,2013-03-17 04:43:00,
2013-03-17 00:53:00,60.0,50.0,29.86,WSW,251,0.0,2.0,70,0.00,,,0.08,,2013-03-17 04:53:00,
2013-03-17 01:03:00,59.0,50.0,29.87,WSW,251,1.0,3.0,72,0.00,,,0.08,,2013-03-17 05:03:00,
2013-03-17 01:12:00,59.0,50.0,29.87,WSW,251,1.0,3.0,72,0.00,,,0.08,,2013-03-17 05:12:00,
2013-03-17 01:22:00,60.0,50.0,29.87,NW,309,0.0,5.0,70,0.00,,,0.08,,2013-03-17 05:22:00,
2013-03-17 01:32:00,60.0,51.0,29.88,West,273,1.0,4.0,71,0.00,,,0.08,,2013-03-17 05:32:00,
2013-03-17 01:42:00,60.0,51.0,29.88,West,273,1.0,4.0,71,0.00,,,0.08,,2013-03-17 05:42:00,
2013-03-17 01:52:00,60.0,51.0,29.88,NW,309,0.0,2.0,71,0.00,,,0.08,,2013-03-17 05:52:00,
2013-03-17 02:02:00,59.0,50.0,29.88,NW,313,0.0,2.0,72,0.00,,,0.08,,2013-03-17 06:02:00,
2013-03-17 02:12:00,59.0,50.0,29.88,NW,313,0.0,2.0,72,0.00,,,0.08,,2013-03-17 06:12:00,
2013-03-17 02:22:00,59.0,50.0,29.88,WNW,303,1.0,3.0,73,0.00,,,0.08,,2013-03-17 06:22:00,
2013-03-17 02:32:00,58.0,49.0,29.88,WNW,303,0.0,1.0,73,0.00,,,0.08,,2013-03-17 06:32:00,
2013-03-17 02:42:00,58.0,49.0,29.88,WNW,303,0.0,1.0,73,0.00,,,0.08,,2013-03-17 06:42:00,
2013-03-17 02:53:00,58.0,50.0,29.88,WNW,302,0.0,2.0,75,0.00,,,0.08,,2013-03-17 06:53:00,
2013-03-17 03:02:00,57.0,50.0,29.89,WNW,300,2.0,3.0,76,0.00,,,0.08,,2013-03-17 07:02:00,
2013-03-17 03:12:00,57.0,50.0,29.89,WNW,300,2.0,3.0,76,0.00,,,0.08,,2013-03-17 07:12:00,
2013-03-17 03:22:00,56.0,50.0,29.90,East,93,2.0,5.0,79,0.00,,,0.08,,2013-03-17 07:22:00,
2013-03-17 03:32:00,56.0,50.0,29.90,East,93,2.0,4.0,79,0.00,,,0.08,,2013-03-17 07:32:00,
2013-03-17 03:42:00,56.0,50.0,29.90,East,93,2.0,4.0,79,0.00,,,0.08,,2013-03-17 07:42:00,
2013-03-17 03:52:00,56.0,49.0,29.90,East,93,0.0,1.0,78,0.00,,,0.08,,2013-03-17 07:52:00,
2013-03-17 04:03:00,56.0,50.0,29.90,East,93,0.0,1.0,79,0.00,,,0.08,,2013-03-17 08:03:00,
2013-03-17 04:13:00,55.0,49.0,29.91,ENE,74,0.0,3.0,80,0.00,,,0.08,,2013-03-17 08:13:00,
2013-03-17 04:22:00,55.0,49.0,29.91,ENE,74,0.0,3.0,80,0.00,,,0.08,,2013-03-17 08:22:00,
2013-03-17 04:32:00,55.0,49.0,29.91,East,80,1.0,3.0,81,0.00,,,0.08,,2013-03-17 08:32:00,
2013-03-17 04:42:00,55.0,49.0,29.91,East,80,1.0,3.0,81,0.00,,,0.08,,2013-03-17 08:42:00,
2013-03-17 04:52:00,55.0,49.0,29.91,East,86,2.0,3.0,81,0.00,,,0.08,,2013-03-17 08:52:00,
2013-03-17 05:03:00,55.0,49.0,29.90,ESE,119,0.0,4.0,80,0.00,,,0.08,,2013-03-17 09:03:00,
2013-03-17 05:12:00,55.0,49.0,29.90,ESE,119,0.0,4.0,80,0.00,,,0.08,,2013-03-17 09:12:00,
2013-03-17 05:22:00,55.0,49.0,29.91,ESE,119,2.0,4.0,80,0.00,,,0.08,,2013-03-17 09:22:00,
2013-03-17 05:32:00,54.0,49.0,29.91,SSE,151,2.0,5.0,82,0.00,,,0.08,,2013-03-17 09:32:00,
2013-03-17 05:43:00,54.0,49.0,29.91,SSE,151,2.0,5.0,82,0.00,,,0.08,,2013-03-17 09:43:00,
2013-03-17 05:53:00,54.0,48.0,29.92,East,88,4.0,8.0,81,0.00,,,0.08,,2013-03-17 09:53:00,
2013-03-17 06:03:00,51.0,47.0,29.93,SE,137,8.0,14.0,86,0.00,,,0.08,,2013-03-17 10:03:00,
2013-03-17 06:13:00,51.0,47.0,29.93,SE,137,8.0,14.0,86,0.00,,,0.08,,2013-03-17 10:13:00,
2013-03-17 06:23:00,50.0,47.0,29.94,ESE,115,4.0,11.0,89,0.00,,,0.08,,2013-03-17 10:23:00,
2013-03-17 06:33:00,50.0,47.0,29.95,ESE,110,6.0,10.0,90,0.00,,,0.08,,2013-03-17 10:33:00,
2013-03-17 06:42:00,50.0,47.0,29.95,ESE,110,6.0,10.0,90,0.00,,,0.08,,2013-03-17 10:42:00,
2013-03-17 06:52:00,49.0,46.0,29.96,SE,136,10.0,15.0,89,0.00,,,0.08,,2013-03-17 10:52:00,
2013-03-17 07:02:00,49.0,45.0,29.97,ESE,115,4.0,8.0,87,0.00,,,0.08,,2013-03-17 11:02:00,
2013-03-17 07:12:00,49.0,45.0,29.97,ESE,115,4.0,8.0,87,0.00,,,0.08,,2013-03-17 11:12:00,
2013-03-17 07:22:00,48.0,44.0,29.98,SE,134,6.0,11.0,86,0.00,,,0.06,,2013-03-17 11:22:00,
2013-03-17 07:32:00,47.0,42.0,29.98,East,94,6.0,14.0,83,0.00,,,0.06,,2013-03-17 11:32:00,
2013-03-17 07:42:00,47.0,42.0,29.98,East,94,6.0,14.0,83,0.00,,,0.06,,2013-03-17 11:42:00,
2013-03-17 07:52:00,47.0,42.0,29.99,SE,126,7.0,12.0,83,0.00,,,0.06,,2013-03-17 11:52:00,
2013-03-17 08:02:00,46.0,41.0,30.00,SSE,162,5.0,8.0,82,0.00,,,0.06,,2013-03-17 12:02:00,
2013-03-17 08:12:00,46.0,41.0,30.00,SSE,162,5.0,8.0,82,0.00,,,0.06,,2013-03-17 12:12:00,
2013-03-17 08:22:00,46.0,41.0,30.01,SE,128,7.0,12.0,82,0.00,,,0.06,,2013-03-17 12:22:00,
2013-03-17 08:33:00,46.0,41.0,30.01,ESE,116,6.0,12.0,83,0.00,,,0.06,,2013-03-17 12:33:00,
2013-03-17 08:43:00,46.0,41.0,30.01,ESE,116,6.0,12.0,83,0.00,,,0.06,,2013-03-17 12:43:00,
2013-03-17 08:52:00,46.0,41.0,30.02,SE,124,5.0,12.0,84,0.00,,,0.06,,2013-03-17 12:52:00,
2013-03-17 09:02:00,45.0,40.0,30.06,East,82,4.0,13.0,83,0.00,,,0.06,,2013-03-17 13:02:00,
2013-03-17 09:13:00,45.0,40.0,30.06,East,82,4.0,13.0,83,0.00,,,0.06,,2013-03-17 13:13:00,
2013-03-17 09:22:00,45.0,41.0,30.06,SSE,157,5.0,8.0,85,0.02,,,0.07,,2013-03-17 13:22:00,
2013-03-17 09:32:00,45.0,41.0,30.06,ESE,117,5.0,8.0,86,0.02,,,0.07,,2013-03-17 13:32:00,
2013-03-17 09:42:00,45.0,41.0,30.06,ESE,117,5.0,8.0,86,0.02,,,0.07,,2013-03-17 13:42:00,
2013-03-17 09:52:00,44.0,40.0,30.06,SSE,150,4.0,9.0,87,0.03,,,0.08,,2013-03-17 13:52:00,
2013-03-17 10:02:00,44.0,40.0,30.07,East,100,5.0,11.0,87,0.03,,,0.08,,2013-03-17 14:02:00,
2013-03-17 10:12:00,44.0,40.0,30.07,East,100,5.0,11.0,87,0.03,,,0.08,,2013-03-17 14:12:00,
2013-03-17 10:22:00,43.0,39.0,30.07,SE,139,6.0,12.0,87,0.03,,,0.09,,2013-03-17 14:22:00,
2013-03-17 10:32:00,43.0,40.0,30.08,ENE,65,4.0,8.0,88,0.02,,,0.09,,2013-03-17 14:32:00,
2013-03-17 10:42:00,43.0,40.0,30.08,ENE,65,4.0,8.0,88,0.02,,,0.09,,2013-03-17 14:42:00,
2013-03-17 10:53:00,43.0,40.0,30.08,SE,126,4.0,11.0,88,0.01,,,0.09,,2013-03-17 14:53:00,
2013-03-17 11:02:00,42.0,38.0,30.08,East,88,6.0,11.0,87,0.01,,,0.09,,2013-03-17 15:02:00,
2013-03-17 11:12:00,42.0,38.0,30.08,East,88,6.0,11.0,87,0.01,,,0.09,,2013-03-17 15:12:00,
2013-03-17 11:23:00,42.0,38.0,30.09,SE,132,6.0,11.0,87,0.00,,,0.09,,2013-03-17 15:23:00,
2013-03-17 11:33:00,42.0,39.0,30.10,ESE,119,4.0,9.0,88,0.00,,,0.09,,2013-03-17 15:33:00,
2013-03-17 11:43:00,42.0,39.0,30.10,ESE,119,4.0,9.0,88,0.00,,,0.09,,2013-03-17 15:43:00,
2013-03-17 11:53:00,42.0,39.0,30.11,ESE,113,4.0,14.0,88,0.00,,,0.09,,2013-03-17 15:53:00,
2013-03-17 12:03:00,41.0,38.0,30.12,ENE,59,3.0,9.0,89,0.00,,,0.09,,2013-03-17 16:03:00,
2013-03-17 12:12:00,41.0,38.0,30.12,ENE,59,3.0,9.0,89,0.00,,,0.09,,2013-03-17 16:12:00,
2013-03-17 12:23:00,41.0,38.0,30.11,SE,138,7.0,11.0,90,0.01,,,0.10,,2013-03-17 16:23:00,
2013-03-17 12:33:00,41.0,38.0,30.11,East,86,2.0,8.0,90,0.01,,,0.10,,2013-03-17 16:33:00,
2013-03-17 12:43:00,41.0,38.0,30.11,East,86,2.0,8.0,90,0.01,,,0.10,,2013-03-17 16:43:00,
2013-03-17 12:52:00,41.0,38.0,30.12,SSE,155,4.0,12.0,90,0.01,,,0.10,,2013-03-17 16:52:00,
2013-03-17 13:02:00,41.0,38.0,30.11,ENE,67,2.0,10.0,90,0.01,,,0.10,,2013-03-17 17:02:00,
2013-03-17 13:12:00,41.0,38.0,30.11,ENE,67,2.0,10.0,90,0.01,,,0.10,,2013-03-17 17:12:00,
2013-03-17 13:22:00,41.0,38.0,30.11,SE,135,6.0,11.0,90,0.00,,,0.10,,2013-03-17 17:22:00,
2013-03-17 13:33:00,41.0,38.0,30.11,SE,128,7.0,12.0,90,0.00,,,0.10,,2013-03-17 17:33:00,
2013-03-17 13:42:00,41.0,38.0,30.11,SE,128,7.0,12.0,90,0.00,,,0.10,,2013-03-17 17:42:00,
2013-03-17 13:53:00,41.0,38.0,30.11,SE,131,9.0,12.0,90,0.00,,,0.10,,2013-03-17 17:53:00,
2013-03-17 14:02:00,41.0,38.0,30.10,SE,136,7.0,12.0,89,0.00,,,0.10,,2013-03-17 18:02:00,
2013-03-17 14:12:00,41.0,38.0,30.10,SE,136,7.0,12.0,89,0.00,,,0.10,,2013-03-17 18:12:00,
2013-03-17 14:22:00,41.0,38.0,30.11,SE,131,6.0,12.0,89,0.00,,,0.10,,2013-03-17 18:22:00,
2013-03-17 14:32:00,41.0,38.0,30.10,SE,134,5.0,9.0,89,0.00,,,0.10,,2013-03-17 18:32:00,
2013-03-17 14:42:00,41.0,38.0,30.10,SE,134,5.0,9.0,89,0.00,,,0.10,,2013-03-17 18:42:00,
2013-03-17 14:52:00,41.0,38.0,30.10,ESE,120,5.0,11.0,89,0.00,,,0.10,,2013-03-17 18:52:00,
2013-03-17 15:02:00,40.0,37.0,30.10,SE,140,3.0,12.0,89,0.00,,,0.10,,2013-03-17 19:02:00,
2013-03-17 15:12:00,40.0,37.0,30.10,SE,140,3.0,12.0,89,0.00,,,0.10,,2013-03-17 19:12:00,
2013-03-17 15:22:00,40.0,37.0,30.10,SE,130,5.0,11.0,89,0.00,,,0.10,,2013-03-17 19:22:00,
2013-03-17 15:33:00,40.0,37.0,30.09,East,95,4.0,8.0,88,0.00,,,0.10,,2013-03-17 19:33:00,
2013-03-17 15:42:00,40.0,37.0,30.09,East,95,4.0,8.0,88,0.00,,,0.10,,2013-03-17 19:42:00,
2013-03-17 15:53:00,40.0,37.0,30.10,East,100,4.0,8.0,88,0.00,,,0.10,,2013-03-17 19:53:00,
2013-03-17 16:02:00,40.0,37.0,30.10,SE,131,3.0,7.0,88,0.00,,,0.10,,2013-03-17 20:02:00,
2013-03-17 16:12:00,40.0,37.0,30.10,SE,131,3.0,7.0,88,0.00,,,0.10,,2013-03-17 20:12:00,
2013-03-17 16:22:00,40.0,37.0,30.10,East,90,4.0,9.0,88,0.00,,,0.10,,2013-03-17 20:22:00,
2013-03-17 16:33:00,40.0,37.0,30.10,SE,125,3.0,8.0,88,0.00,,,0.10,,2013-03-17 20:33:00,
2013-03-17 16:42:00,40.0,37.0,30.10,SE,125,3.0,8.0,88,0.00,,,0.10,,2013-03-17 20:42:00,
2013-03-17 16:52:00,40.0,37.0,30.11,SE,126,3.0,9.0,88,0.00,,,0.10,,2013-03-17 20:52:00,
2013-03-17 17:03:00,40.0,37.0,30.11,SE,140,4.0,7.0,88,0.00,,,0.10,,2013-03-17 21:03:00,
2013-03-17 17:12:00,40.0,37.0,30.11,SE,140,4.0,7.0,88,0.00,,,0.10,,2013-03-17 21:12:00,
2013-03-17 17:22:00,40.0,37.0,30.11,ESE,104,5.0,9.0,88,0.00,,,0.10,,2013-03-17 21:22:00,
2013-03-17 17:33:00,40.0,37.0,30.11,ESE,106,6.0,13.0,88,0.00,,,0.10,,2013-03-17 21:33:00,
2013-03-17 17:43:00,40.0,37.0,30.11,ESE,106,6.0,13.0,88,0.00,,,0.10,,2013-03-17 21:43:00,
2013-03-17 17:52:00,40.0,37.0,30.12,SE,138,5.0,9.0,89,0.00,,,0.10,,2013-03-17 21:52:00,
2013-03-17 18:03:00,39.0,36.0,30.13,East,86,5.0,8.0,90,0.00,,,0.10,,2013-03-17 22:03:00,
2013-03-17 18:13:00,39.0,37.0,30.14,ESE,109,7.0,10.0,91,0.00,,,0.05,,2013-03-17 22:13:00,
2013-03-17 18:23:00,39.0,37.0,30.14,ESE,109,7.0,10.0,91,0.00,,,0.05,,2013-03-17 22:23:00,
2013-03-17 18:33:00,39.0,37.0,30.14,East,101,4.0,9.0,91,0.01,,,0.06,,2013-03-17 22:33:00,
2013-03-17 18:42:00,39.0,37.0,30.14,East,101,4.0,9.0,91,0.01,,,0.06,,2013-03-17 22:42:00,
2013-03-17 18:53:00,39.0,37.0,30.11,East,94,8.0,12.0,91,0.01,,,0.06,,2013-03-17 22:53:00,
2013-03-17 19:03:00,39.0,37.0,30.12,ESE,119,5.0,11.0,91,0.01,,,0.06,,2013-03-17 23:03:00,
2013-03-17 19:12:00,39.0,37.0,30.12,ESE,119,5.0,11.0,91,0.01,,,0.06,,2013-03-17 23:12:00,
2013-03-17 19:22:00,39.0,37.0,30.13,East,90,2.0,12.0,91,0.01,,,0.06,,2013-03-17 23:22:00,
2013-03-17 19:33:00,39.0,37.0,30.11,SE,133,3.0,9.0,91,0.02,,,0.08,,2013-03-17 23:33:00,
2013-03-17 19:43:00,39.0,37.0,30.11,SE,133,3.0,9.0,91,0.02,,,0.08,,2013-03-17 23:43:00,
2013-03-17 19:53:00,39.0,37.0,30.13,East,101,2.0,7.0,92,0.04,,,0.10,,2013-03-17 23:53:00,
2013-03-17 20:03:00,39.0,37.0,30.13,SE,125,2.0,7.0,92,0.06,,,0.12,,2013-03-18 00:03:00,
2013-03-17 20:13:00,39.0,37.0,30.13,SE,125,2.0,7.0,92,0.06,,,0.12,,2013-03-18 00:13:00,
2013-03-17 20:22:00,38.0,36.0,30.14,SE,138,3.0,8.0,92,0.09,,,0.15,,2013-03-18 00:22:00,
2013-03-17 20:33:00,38.0,36.0,30.14,SE,139,2.0,7.0,92,0.09,,,0.17,,2013-03-18 00:33:00,
2013-03-17 20:42:00,38.0,36.0,30.14,SE,139,2.0,7.0,92,0.09,,,0.17,,2013-03-18 00:42:00,
2013-03-17 20:53:00,38.0,36.0,30.15,SE,140,4.0,6.0,92,0.10,,,0.20,,2013-03-18 00:53:00,
2013-03-17 21:02:00,38.0,36.0,30.16,SSE,148,5.0,8.0,92,0.11,,,0.23,,2013-03-18 01:02:00,
2013-03-17 21:12:00,38.0,36.0,30.16,SSE,148,5.0,8.0,92,0.11,,,0.23,,2013-03-18 01:12:00,
2013-03-17 21:22:00,38.0,36.0,30.16,ESE,121,2.0,8.0,92,0.11,,,0.26,,2013-03-18 01:22:00,
2013-03-17 21:32:00,37.0,35.0,30.17,SE,146,6.0,12.0,92,0.12,,,0.29,,2013-03-18 01:32:00,
2013-03-17 21:42:00,37.0,35.0,30.17,SE,146,6.0,12.0,92,0.12,,,0.29,,2013-03-18 01:42:00,
2013-03-17 21:52:00,37.0,35.0,30.18,SE,132,5.0,12.0,92,0.12,,,0.32,,2013-03-18 01:52:00,
2013-03-17 22:02:00,37.0,35.0,30.18,SE,132,4.0,12.0,92,0.12,,,0.35,,2013-03-18 02:02:00,
2013-03-17 22:12:00,37.0,35.0,30.18,SE,132,4.0,12.0,92,0.12,,,0.35,,2013-03-18 02:12:00,
2013-03-17 22:22:00,37.0,35.0,30.19,SE,136,4.0,11.0,92,0.12,,,0.38,,2013-03-18 02:22:00,
2013-03-17 22:32:00,37.0,35.0,30.19,SE,131,6.0,12.0,92,0.12,,,0.41,,2013-03-18 02:32:00,
2013-03-17 22:42:00,37.0,35.0,30.19,SE,131,6.0,12.0,92,0.12,,,0.41,,2013-03-18 02:42:00,
2013-03-17 22:52:00,37.0,35.0,30.20,ESE,118,3.0,9.0,92,0.12,,,0.44,,2013-03-18 02:52:00,
2013-03-17 23:03:00,37.0,35.0,30.20,ESE,112,4.0,7.0,92,0.11,,,0.46,,2013-03-18 03:03:00,
2013-03-17 23:12:00,37.0,35.0,30.20,ESE,112,4.0,7.0,92,0.11,,,0.46,,2013-03-18 03:12:00,
2013-03-17 23:22:00,37.0,35.0,30.20,ENE,78,3.0,7.0,92,0.10,,,0.48,,2013-03-18 03:22:00,
2013-03-17 23:33:00,37.0,35.0,30.20,SE,132,4.0,8.0,93,0.10,,,0.51,,2013-03-18 03:33:00,
2013-03-17 23:42:00,37.0,35.0,30.20,SE,132,4.0,8.0,93,0.10,,,0.51,,2013-03-18 03:42:00,
2013-03-17 23:53:00,37.0,35.0,30.20,SE,139,3.0,6.0,93,0.09,,,0.53,,2013-03-18 03:53:00,